Heat Index SAI AWOS Graphical Display Untitled Document
Bertrand Chaffee Hospital Heliport (2NK6) Springville, New York, USA
150
04:36
18/11/2017
05
N/A
VRB
29.88
N/A
1420
37(F), 3(C)
22(F), -6(C)
33 F
55%
CLR
10
N/A
0"
N/A
04:36 zulu Wind 150 at 05 Knots, Altimeter 29.88
METAR K2NK6 180436Z AUTO 15005KT V0RB 10SM CLR 03/M06 A2988 A02 P0000
METAR:
FAA Disclaimer--Advisory Use ONLY, not for flight info--
INFO:
Wind Direction:
Wind Speed:
Wind Gust:
Wind Variable:
Altimeter:
Dens Alt:
Elev:
Temp:
Dwpt:
Wind Chill
Rel Humidity:
Ceiling:
Visibility:
Prsnt Wea:
PCPN:
Remarks:
How to read the WebPage